Time;durP1;ratioP1;P1;durP2;ratioP2;P2;SDS_P1;SDS_P2;PMS_P1;PMS_P2;Temp;Humidity;BMP_temperature;BMP_pressure;BME280_temperature;BME280_humidity;BME280_pressure;Samples;Min_cycle;Max_cycle;Signal;HPM_P1;HPM_P2
2021/04/17 00:01:05;;;;;;;6.97;3.83;;;5.20;99.90;;;;;;5005506;28;20018;-57
2021/04/17 00:03:31;;;;;;;6.22;4.10;;;5.20;99.90;;;;;;5006916;28;20026;-60
2021/04/17 00:05:56;;;;;;;8.18;4.18;;;5.10;99.90;;;;;;5008131;28;20074;-61
2021/04/17 00:08:22;;;;;;;7.20;4.57;;;5.10;99.90;;;;;;5008758;28;20030;-60
2021/04/17 00:10:47;;;;;;;11.35;4.32;;;5.10;99.90;;;;;;5007162;28;20048;-59
2021/04/17 00:13:13;;;;;;;7.97;4.30;;;5.20;99.90;;;;;;5009515;28;20037;-60
2021/04/17 00:15:39;;;;;;;10.90;4.35;;;5.20;99.90;;;;;;5006696;28;20042;-55
2021/04/17 00:18:04;;;;;;;8.65;4.00;;;5.20;99.90;;;;;;5008539;28;20472;-62
2021/04/17 00:20:30;;;;;;;9.25;3.85;;;5.30;99.90;;;;;;4985064;28;20165;-58
2021/04/17 00:22:56;;;;;;;9.75;4.65;;;5.30;99.90;;;;;;5006428;28;20105;-58
2021/04/17 00:25:21;;;;;;;8.45;4.00;;;5.30;99.90;;;;;;5007234;28;20030;-59
2021/04/17 00:27:47;;;;;;;9.65;4.00;;;5.30;99.90;;;;;;5007845;28;20034;-60
2021/04/17 00:30:13;;;;;;;9.30;3.97;;;5.40;99.90;;;;;;5006532;28;20022;-61
2021/04/17 00:32:39;;;;;;;10.23;3.70;;;5.40;99.90;;;;;;5006745;28;20029;-58
2021/04/17 00:35:05;;;;;;;11.93;4.05;;;5.50;99.90;;;;;;5006905;28;20117;-59
2021/04/17 00:37:31;;;;;;;11.27;4.00;;;5.40;99.90;;;;;;5007770;28;20034;-59
2021/04/17 00:39:56;;;;;;;6.75;3.95;;;5.40;99.90;;;;;;5006907;28;20033;-58
2021/04/17 00:42:22;;;;;;;7.50;3.97;;;5.40;99.90;;;;;;5006219;28;20030;-58
2021/04/17 00:44:48;;;;;;;6.65;3.70;;;5.40;99.90;;;;;;5008122;28;20403;-61
2021/04/17 00:47:15;;;;;;;8.38;3.55;;;5.50;99.90;;;;;;4998312;28;20042;-62
2021/04/17 00:49:40;;;;;;;8.90;4.13;;;5.50;99.90;;;;;;5004517;28;20057;-59
2021/04/17 00:52:06;;;;;;;9.57;3.55;;;5.50;99.90;;;;;;5006164;28;20038;-58
2021/04/17 00:54:32;;;;;;;6.35;3.40;;;5.60;99.90;;;;;;5006804;28;20049;-60
2021/04/17 00:56:58;;;;;;;5.63;3.55;;;5.60;99.90;;;;;;5005934;28;20026;-60
2021/04/17 00:59:23;;;;;;;6.95;3.80;;;5.70;99.90;;;;;;5005624;28;20041;-58
2021/04/17 01:18:42;;;;;;;8.13;3.88;;;5.70;99.90;;;;;;5002757;28;20136;-61
2021/04/17 01:21:07;;;;;;;6.75;3.85;;;5.60;99.90;;;;;;5007148;28;20135;-62
2021/04/17 01:23:39;;;;;;;6.32;3.95;;;5.60;99.90;;;;;;5007325;28;20170;-60
2021/04/17 01:26:09;;;;;;;6.38;4.20;;;5.60;99.90;;;;;;5009335;28;20022;-60
2021/04/17 01:28:38;;;;;;;7.35;3.70;;;5.50;99.90;;;;;;5005996;28;20048;-59
2021/04/17 01:31:06;;;;;;;8.80;4.43;;;5.40;99.90;;;;;;5006101;28;20029;-57
2021/04/17 01:33:34;;;;;;;8.75;3.65;;;5.40;99.90;;;;;;5006186;28;20440;-59
2021/04/17 01:36:02;;;;;;;8.70;3.72;;;5.30;99.90;;;;;;5009428;28;20502;-62
2021/04/17 01:38:34;;;;;;;7.72;4.43;;;5.30;99.90;;;;;;5006104;28;20092;-60
2021/04/17 01:41:03;;;;;;;14.05;4.03;;;5.30;99.90;;;;;;5007795;28;20053;-59
2021/04/17 01:43:30;;;;;;;8.52;3.90;;;5.30;99.90;;;;;;5005172;28;20034;-59
2021/04/17 01:46:03;;;;;;;8.57;3.50;;;5.30;99.90;;;;;;5004500;28;20045;-58
2021/04/17 01:48:29;;;;;;;7.20;4.10;;;5.40;99.90;;;;;;5005873;28;20053;-58
2021/04/17 01:50:57;;;;;;;11.07;3.45;;;5.40;99.90;;;;;;5006133;28;20513;-58
2021/04/17 01:53:27;;;;;;;11.75;3.63;;;5.40;99.90;;;;;;5006680;28;20029;-58
2021/04/17 01:55:54;;;;;;;11.15;3.70;;;5.30;99.90;;;;;;5007020;28;20096;-59
2021/04/17 01:58:24;;;;;;;10.00;3.88;;;5.20;99.90;;;;;;5007169;28;20030;-59
2021/04/17 02:00:54;;;;;;;8.32;3.80;;;5.10;99.90;;;;;;5005456;28;20049;-59
2021/04/17 02:03:20;;;;;;;9.32;4.00;;;5.00;99.90;;;;;;5008991;28;20112;-57
2021/04/17 02:05:48;;;;;;;7.00;3.63;;;4.90;99.90;;;;;;5007271;28;20084;-59
2021/04/17 02:08:14;;;;;;;8.60;4.20;;;4.80;99.90;;;;;;5005676;28;20053;-59
2021/04/17 02:10:39;;;;;;;9.50;3.92;;;4.80;99.90;;;;;;5008205;28;20057;-60
2021/04/17 02:13:07;;;;;;;7.45;3.45;;;4.80;99.90;;;;;;5007020;28;20084;-58
2021/04/17 02:15:35;;;;;;;10.15;3.78;;;4.90;99.90;;;;;;5005522;28;20053;-59
2021/04/17 02:18:17;;;;;;;7.30;3.40;;;4.90;99.90;;;;;;5006931;28;20037;-60
2021/04/17 02:20:50;;;;;;;7.80;4.57;;;5.00;99.90;;;;;;5010259;28;20022;-62
2021/04/17 02:23:16;;;;;;;9.40;3.70;;;5.00;99.90;;;;;;5014073;28;20034;-61
2021/04/17 02:25:42;;;;;;;8.18;4.07;;;5.00;99.90;;;;;;5009818;28;20529;-62
2021/04/17 02:28:08;;;;;;;9.18;3.97;;;5.00;99.90;;;;;;5006225;28;20412;-61
2021/04/17 02:30:36;;;;;;;7.80;3.90;;;5.00;99.90;;;;;;5006368;28;20045;-60
2021/04/17 02:33:02;;;;;;;7.07;3.70;;;5.00;99.90;;;;;;5004897;28;20048;-61
2021/04/17 02:35:28;;;;;;;8.05;3.95;;;5.00;99.90;;;;;;5004348;28;20131;-57
2021/04/17 02:37:53;;;;;;;6.13;3.45;;;5.00;99.90;;;;;;5006494;28;20061;-56
2021/04/17 02:40:19;;;;;;;6.32;3.58;;;5.00;99.90;;;;;;5008239;28;20427;-53
2021/04/17 02:42:45;;;;;;;7.55;3.97;;;4.90;99.90;;;;;;5005593;28;20029;-57
2021/04/17 02:45:11;;;;;;;7.55;3.67;;;4.80;99.90;;;;;;5007372;28;20030;-60
2021/04/17 02:47:36;;;;;;;5.68;3.47;;;4.80;99.90;;;;;;5004654;28;20030;-60
2021/04/17 02:50:03;;;;;;;6.93;4.07;;;4.80;99.90;;;;;;5006738;28;20022;-58
2021/04/17 02:52:29;;;;;;;5.90;3.72;;;4.70;99.90;;;;;;5007622;28;20465;-57
2021/04/17 02:54:55;;;;;;;6.65;3.53;;;4.70;99.90;;;;;;5006581;28;20052;-61
2021/04/17 02:57:20;;;;;;;8.88;3.53;;;4.60;99.90;;;;;;5006499;28;20538;-55
2021/04/17 02:59:46;;;;;;;7.40;3.92;;;4.60;99.90;;;;;;5004959;28;20034;-60
2021/04/17 03:02:13;;;;;;;7.50;3.65;;;4.60;99.90;;;;;;5007069;28;20569;-56
2021/04/17 03:04:38;;;;;;;12.55;3.83;;;4.60;99.90;;;;;;5006491;28;20486;-59
2021/04/17 03:07:04;;;;;;;7.38;3.75;;;4.60;99.90;;;;;;5006656;28;20030;-56
2021/04/17 03:09:29;;;;;;;6.57;3.35;;;4.60;99.90;;;;;;5009985;28;20030;-62
2021/04/17 03:11:55;;;;;;;15.25;6.75;;;4.60;99.90;;;;;;5005221;28;20045;-56
2021/04/17 03:14:21;;;;;;;8.13;3.65;;;4.60;99.90;;;;;;5006423;28;20042;-59
2021/04/17 03:16:46;;;;;;;7.65;3.58;;;4.70;99.90;;;;;;5006224;28;20072;-59
2021/04/17 03:19:12;;;;;;;5.70;3.42;;;4.60;99.90;;;;;;5004664;28;20042;-58
2021/04/17 03:21:37;;;;;;;5.90;3.15;;;4.60;99.90;;;;;;5005428;28;20038;-60
2021/04/17 03:24:03;;;;;;;11.60;3.65;;;4.50;99.90;;;;;;5006721;28;20033;-58
2021/04/17 03:26:29;;;;;;;9.55;3.55;;;4.50;99.90;;;;;;5005865;28;20034;-60
2021/04/17 03:28:54;;;;;;;5.63;3.17;;;4.40;99.90;;;;;;5004774;28;20045;-60
2021/04/17 03:31:20;;;;;;;6.05;3.10;;;4.40;99.90;;;;;;5004860;28;20044;-60
2021/04/17 03:33:46;;;;;;;6.03;3.78;;;4.40;99.90;;;;;;5009253;28;20117;-55
2021/04/17 03:36:12;;;;;;;6.63;3.15;;;4.40;99.90;;;;;;5008470;28;20042;-58
2021/04/17 03:38:37;;;;;;;4.80;2.72;;;4.30;99.90;;;;;;5009014;28;20070;-58
2021/04/17 03:41:03;;;;;;;6.68;3.67;;;4.20;99.90;;;;;;5011330;28;20436;-60
2021/04/17 03:43:29;;;;;;;7.88;3.10;;;4.20;99.90;;;;;;5009581;28;20036;-56
2021/04/17 03:45:55;;;;;;;5.93;3.10;;;4.20;99.90;;;;;;5008612;28;20030;-60
2021/04/17 03:48:21;;;;;;;10.05;3.33;;;4.20;99.90;;;;;;5010430;28;20044;-58
2021/04/17 03:50:46;;;;;;;6.63;3.50;;;4.20;99.90;;;;;;5007885;28;20042;-60
2021/04/17 03:53:12;;;;;;;8.55;2.75;;;4.30;99.90;;;;;;5006276;28;20034;-62
2021/04/17 03:55:38;;;;;;;7.85;3.13;;;4.20;99.90;;;;;;5009542;28;20112;-63
2021/04/17 03:58:04;;;;;;;6.18;3.13;;;4.20;99.90;;;;;;5009832;28;20056;-59
2021/04/17 04:00:29;;;;;;;4.65;2.58;;;4.30;99.90;;;;;;5008523;28;20034;-57
2021/04/17 04:02:55;;;;;;;5.05;2.78;;;4.30;99.90;;;;;;5006758;28;20026;-58
2021/04/17 04:05:20;;;;;;;3.88;2.42;;;4.30;99.90;;;;;;5006843;28;20048;-61
2021/04/17 04:07:46;;;;;;;4.22;2.30;;;4.40;99.90;;;;;;5009043;28;20044;-59
2021/04/17 04:10:13;;;;;;;6.68;3.35;;;4.40;99.90;;;;;;5008105;28;20036;-59
2021/04/17 04:12:40;;;;;;;9.95;2.95;;;4.40;99.90;;;;;;5008537;28;20033;-58
2021/04/17 04:15:07;;;;;;;12.45;3.20;;;4.40;99.90;;;;;;5008003;28;20029;-59
2021/04/17 04:17:32;;;;;;;10.23;3.08;;;4.30;99.90;;;;;;5009484;28;20044;-58
2021/04/17 04:19:58;;;;;;;6.07;3.40;;;4.30;99.90;;;;;;5008085;28;20038;-55
2021/04/17 04:22:24;;;;;;;4.07;2.50;;;4.30;99.90;;;;;;5007387;28;20025;-58
2021/04/17 04:24:49;;;;;;;6.65;2.92;;;4.30;99.90;;;;;;5008384;28;20045;-60
2021/04/17 04:27:15;;;;;;;5.90;2.95;;;4.30;99.90;;;;;;5011158;28;20034;-56
2021/04/17 04:29:40;;;;;;;6.88;2.90;;;4.30;99.90;;;;;;5006486;28;20026;-60
2021/04/17 04:32:06;;;;;;;5.72;3.05;;;4.30;99.90;;;;;;5006883;28;21585;-61
2021/04/17 04:34:32;;;;;;;6.38;2.53;;;4.30;99.90;;;;;;5007749;28;20448;-62
2021/04/17 04:36:58;;;;;;;8.90;3.05;;;4.30;99.90;;;;;;5008204;28;20055;-59
2021/04/17 04:39:23;;;;;;;5.70;2.80;;;4.30;99.90;;;;;;5010544;28;20391;-57
2021/04/17 04:41:49;;;;;;;8.88;3.15;;;4.30;99.90;;;;;;5006537;28;20026;-59
2021/04/17 04:44:14;;;;;;;8.48;2.60;;;4.40;99.90;;;;;;5007507;28;20076;-62
2021/04/17 04:46:40;;;;;;;6.38;2.78;;;4.40;99.90;;;;;;5009053;28;20547;-57
2021/04/17 04:49:05;;;;;;;7.32;3.47;;;4.40;99.90;;;;;;5006980;28;21968;-58
2021/04/17 04:51:31;;;;;;;8.20;2.50;;;4.40;99.90;;;;;;5006635;28;20116;-60
2021/04/17 04:53:57;;;;;;;9.90;2.88;;;4.40;99.90;;;;;;5008783;28;20146;-60
2021/04/17 04:56:22;;;;;;;4.63;2.63;;;4.40;99.90;;;;;;5007790;28;20038;-58
2021/04/17 04:58:48;;;;;;;7.30;3.13;;;4.50;99.90;;;;;;5009914;28;20471;-62
2021/04/17 05:01:14;;;;;;;7.07;2.55;;;4.50;99.90;;;;;;5019408;28;20044;-63
2021/04/17 05:03:39;;;;;;;5.55;2.85;;;4.50;99.90;;;;;;5013634;28;20061;-60
2021/04/17 05:06:05;;;;;;;6.95;3.15;;;4.60;99.90;;;;;;5010228;28;20045;-57
2021/04/17 05:08:31;;;;;;;10.23;3.50;;;4.60;99.90;;;;;;5009474;28;20434;-61
2021/04/17 05:10:56;;;;;;;7.68;2.70;;;4.60;99.90;;;;;;5005601;28;20034;-56
2021/04/17 05:13:22;;;;;;;4.78;2.80;;;4.70;99.90;;;;;;5006715;28;20025;-58
2021/04/17 05:15:47;;;;;;;10.18;4.45;;;4.80;99.90;;;;;;5005147;28;20032;-59
2021/04/17 05:18:13;;;;;;;6.57;3.30;;;4.80;99.90;;;;;;5005633;28;20098;-59
2021/04/17 05:20:39;;;;;;;6.78;3.08;;;4.90;99.90;;;;;;5010538;28;20022;-60
2021/04/17 05:23:04;;;;;;;5.80;2.90;;;4.90;99.90;;;;;;5010022;28;20026;-58
2021/04/17 05:25:30;;;;;;;5.43;2.90;;;4.90;99.90;;;;;;5006095;28;20049;-59
2021/04/17 05:27:55;;;;;;;7.82;3.13;;;5.00;99.90;;;;;;5008533;28;20030;-61
2021/04/17 05:30:21;;;;;;;6.75;3.55;;;5.00;99.90;;;;;;5004377;28;20033;-59
2021/04/17 05:32:47;;;;;;;6.97;3.35;;;5.10;99.90;;;;;;5007640;28;20112;-61
2021/04/17 05:35:13;;;;;;;8.75;3.33;;;5.20;99.90;;;;;;5008285;28;20156;-59
2021/04/17 05:37:39;;;;;;;6.75;2.85;;;5.30;99.90;;;;;;5006709;28;20030;-59
2021/04/17 05:40:05;;;;;;;7.05;3.30;;;5.40;99.90;;;;;;5007252;28;20437;-59
2021/04/17 05:42:31;;;;;;;6.93;3.50;;;5.50;99.60;;;;;;5008848;28;20606;-62
2021/04/17 05:44:57;;;;;;;4.68;2.70;;;5.60;99.40;;;;;;5007458;28;20120;-61
2021/04/17 05:47:22;;;;;;;8.98;2.95;;;5.50;99.90;;;;;;5008690;28;20033;-62
2021/04/17 05:49:48;;;;;;;5.93;3.20;;;5.60;99.40;;;;;;5004961;28;20030;-60
2021/04/17 05:52:13;;;;;;;6.18;3.20;;;5.60;99.60;;;;;;5006706;28;20034;-57
2021/04/17 05:54:39;;;;;;;8.07;2.95;;;5.70;99.20;;;;;;5007286;28;20025;-61
2021/04/17 05:57:05;;;;;;;5.53;3.33;;;5.80;99.00;;;;;;5010358;28;20037;-60
2021/04/17 05:59:31;;;;;;;6.72;3.40;;;5.90;98.90;;;;;;5006641;28;20507;-60
2021/04/17 06:01:56;;;;;;;5.38;2.90;;;6.00;98.70;;;;;;5007389;28;20190;-60
2021/04/17 06:04:22;;;;;;;5.60;3.72;;;6.10;98.60;;;;;;5007730;28;20518;-61
2021/04/17 06:06:47;;;;;;;8.25;3.95;;;6.10;98.50;;;;;;5006397;28;20782;-59
2021/04/17 06:09:13;;;;;;;7.78;3.38;;;6.20;98.50;;;;;;5008656;28;20095;-61
2021/04/17 06:11:40;;;;;;;6.35;3.60;;;6.30;98.40;;;;;;5006185;28;20052;-58
2021/04/17 06:14:05;;;;;;;8.73;2.97;;;6.60;97.80;;;;;;5005612;28;20495;-60
2021/04/17 06:16:31;;;;;;;7.75;3.10;;;6.80;97.20;;;;;;5005268;28;20053;-61
2021/04/17 06:18:57;;;;;;;8.32;3.25;;;7.00;97.00;;;;;;5008368;28;20061;-62
2021/04/17 06:21:22;;;;;;;5.53;3.28;;;7.30;96.30;;;;;;5005926;28;20022;-62
2021/04/17 06:23:48;;;;;;;7.20;3.60;;;7.70;95.60;;;;;;5008035;28;20662;-57
2021/04/17 06:26:13;;;;;;;6.57;3.50;;;8.20;94.90;;;;;;5006748;28;20522;-61
2021/04/17 06:28:39;;;;;;;8.80;3.35;;;8.60;93.70;;;;;;5007359;28;20030;-60
2021/04/17 06:31:04;;;;;;;11.02;4.07;;;9.00;92.30;;;;;;5006798;28;20034;-60
2021/04/17 06:33:30;;;;;;;6.65;3.40;;;9.40;91.80;;;;;;5005896;28;20115;-59
2021/04/17 06:35:58;;;;;;;7.47;3.90;;;10.50;88.80;;;;;;5006049;28;20033;-60
2021/04/17 06:38:23;;;;;;;7.75;3.97;;;11.10;84.60;;;;;;5009999;28;20655;-60
2021/04/17 06:40:52;;;;;;;8.18;3.28;;;11.50;82.20;;;;;;5008503;28;20104;-59
2021/04/17 06:43:22;;;;;;;9.60;3.63;;;12.70;78.00;;;;;;5005366;28;20491;-59
2021/04/17 06:45:52;;;;;;;7.40;3.97;;;14.20;71.40;;;;;;5005708;28;20542;-61
2021/04/17 06:48:20;;;;;;;6.70;4.22;;;15.50;66.40;;;;;;5010041;28;20032;-61
2021/04/17 06:50:47;;;;;;;6.40;3.90;;;16.70;58.10;;;;;;5006454;28;20056;-60
2021/04/17 06:53:15;;;;;;;4.47;3.35;;;17.00;53.40;;;;;;5004967;28;20484;-61
2021/04/17 06:55:40;;;;;;;12.05;3.53;;;17.60;50.70;;;;;;5004468;28;20652;-60
2021/04/17 06:58:06;;;;;;;7.88;3.78;;;17.90;48.60;;;;;;5003931;28;20116;-61
2021/04/17 07:00:32;;;;;;;9.70;4.35;;;17.50;49.70;;;;;;4982565;28;20095;-60
2021/04/17 07:02:57;;;;;;;6.15;3.92;;;18.00;47.90;;;;;;5002026;28;20076;-60
2021/04/17 07:05:23;;;;;;;4.50;3.22;;;18.10;47.70;;;;;;5002328;28;20029;-59
2021/04/17 07:07:49;;;;;;;7.10;3.50;;;17.90;49.40;;;;;;5001962;28;20092;-62
2021/04/17 07:10:16;;;;;;;8.52;3.40;;;18.50;48.20;;;;;;5004493;28;20456;-60
2021/04/17 07:12:46;;;;;;;6.32;4.20;;;18.50;47.50;;;;;;5003870;28;20042;-61
2021/04/17 07:15:13;;;;;;;8.18;3.33;;;19.60;45.40;;;;;;5003222;28;20026;-58
2021/04/17 07:17:39;;;;;;;7.45;3.90;;;19.60;44.80;;;;;;5010689;28;20125;-60
2021/04/17 07:20:10;;;;;;;6.75;3.00;;;19.50;44.20;;;;;;5020596;28;20022;-61
2021/04/17 07:22:38;;;;;;;5.00;2.97;;;18.90;43.50;;;;;;5020646;28;20125;-60
2021/04/17 07:25:06;;;;;;;8.05;3.67;;;19.80;44.00;;;;;;5018616;28;20491;-60
2021/04/17 07:27:44;;;;;;;8.63;3.33;;;19.90;41.90;;;;;;5021180;28;20040;-61
2021/04/17 07:30:16;;;;;;;6.00;3.22;;;20.60;40.40;;;;;;5019320;28;20557;-61
2021/04/17 07:32:46;;;;;;;7.05;3.30;;;19.50;41.10;;;;;;5018129;28;20116;-60
2021/04/17 07:35:15;;;;;;;6.43;2.90;;;19.40;41.20;;;;;;5010551;28;20029;-58
2021/04/17 07:37:42;;;;;;;4.25;2.90;;;19.40;41.30;;;;;;5019665;28;20109;-62
2021/04/17 07:40:23;;;;;;;4.50;2.08;;;18.00;43.60;;;;;;5021573;28;20403;-62
2021/04/17 07:42:52;;;;;;;5.93;2.80;;;18.10;42.50;;;;;;5019784;28;20108;-59
2021/04/17 07:45:22;;;;;;;6.85;2.60;;;18.80;41.50;;;;;;5020612;28;20045;-62
2021/04/17 07:47:47;;;;;;;5.82;3.10;;;18.60;42.40;;;;;;5019190;28;20537;-61
2021/04/17 07:50:13;;;;;;;5.55;2.80;;;18.70;40.90;;;;;;5019441;28;20029;-61
2021/04/17 07:52:39;;;;;;;6.70;2.85;;;19.00;40.00;;;;;;5018830;28;20029;-60
2021/04/17 07:55:13;;;;;;;4.78;2.67;;;18.70;40.40;;;;;;5020060;28;20076;-61
2021/04/17 07:57:47;;;;;;;5.75;2.85;;;18.90;41.20;;;;;;5009698;28;20034;-62
2021/04/17 08:00:16;;;;;;;5.20;2.80;;;19.10;39.20;;;;;;4995462;28;20529;-59
2021/04/17 08:02:45;;;;;;;7.18;3.42;;;18.20;40.90;;;;;;5010275;28;20025;-60
2021/04/17 08:05:13;;;;;;;5.45;2.95;;;18.50;40.00;;;;;;5009815;28;20025;-60
2021/04/17 08:07:39;;;;;;;5.55;2.80;;;18.50;40.10;;;;;;5007358;28;20025;-60
2021/04/17 08:10:07;;;;;;;6.53;2.85;;;18.80;40.20;;;;;;5009357;28;20084;-61
2021/04/17 08:12:38;;;;;;;4.03;2.65;;;19.50;40.00;;;;;;5007599;28;20030;-60
2021/04/17 08:15:07;;;;;;;5.00;2.90;;;19.00;39.70;;;;;;5016751;28;20113;-59
2021/04/17 08:17:32;;;;;;;8.95;3.40;;;18.40;40.40;;;;;;5008609;28;20029;-61
2021/04/17 08:19:58;;;;;;;5.57;3.33;;;18.20;40.40;;;;;;5020648;28;20018;-60
2021/04/17 08:22:26;;;;;;;6.20;3.00;;;18.10;40.30;;;;;;5025112;28;20018;-59
2021/04/17 08:24:52;;;;;;;9.07;3.67;;;17.30;41.40;;;;;;5021528;28;20446;-60
2021/04/17 08:27:19;;;;;;;6.95;2.95;;;17.10;41.70;;;;;;5016732;28;20115;-61
2021/04/17 08:29:52;;;;;;;6.57;3.42;;;16.70;42.80;;;;;;5015468;28;20180;-61
2021/04/17 08:32:34;;;;;;;7.50;3.72;;;16.60;43.10;;;;;;5011210;28;20044;-59
2021/04/17 08:35:14;;;;;;;7.20;3.47;;;16.30;43.00;;;;;;5019737;28;20051;-60
2021/04/17 08:37:55;;;;;;;5.85;3.22;;;15.70;43.90;;;;;;5012235;28;20026;-60
2021/04/17 08:40:35;;;;;;;4.70;3.45;;;14.80;44.70;;;;;;5021596;28;20100;-59
2021/04/17 08:43:02;;;;;;;6.65;3.08;;;14.30;47.50;;;;;;5021325;28;20025;-62
2021/04/17 08:45:28;;;;;;;7.10;3.67;;;15.40;46.60;;;;;;5020684;28;20445;-58
2021/04/17 08:48:01;;;;;;;6.07;2.83;;;16.40;43.70;;;;;;5018651;28;20033;-58
2021/04/17 08:50:33;;;;;;;7.03;3.42;;;17.40;42.10;;;;;;5023960;28;20038;-61
2021/04/17 08:53:25;;;;;;;5.72;3.35;;;17.70;42.50;;;;;;5017770;28;20064;-61
2021/04/17 08:55:51;;;;;;;6.38;3.17;;;18.20;41.80;;;;;;5019233;28;20041;-60
2021/04/17 08:58:22;;;;;;;7.45;3.50;;;18.50;39.90;;;;;;5010101;28;20037;-61
2021/04/17 09:00:50;;;;;;;6.65;2.58;;;18.40;40.20;;;;;;5000651;28;20053;-59
2021/04/17 09:03:34;;;;;;;7.13;2.90;;;18.90;41.20;;;;;;5021629;28;20036;-61
2021/04/17 09:06:01;;;;;;;5.15;2.78;;;18.40;40.30;;;;;;5021475;28;20036;-60
2021/04/17 09:08:26;;;;;;;4.75;2.65;;;18.80;40.10;;;;;;5017961;28;20619;-61
2021/04/17 09:10:53;;;;;;;6.50;3.10;;;18.80;39.30;;;;;;5020168;28;20030;-63
2021/04/17 09:13:20;;;;;;;5.80;3.40;;;18.40;40.10;;;;;;5023068;28;20025;-61
2021/04/17 09:15:58;;;;;;;8.88;2.97;;;18.20;40.30;;;;;;5014502;28;20426;-61
2021/04/17 09:18:33;;;;;;;6.40;3.28;;;18.20;40.00;;;;;;5012364;28;20543;-62
2021/04/17 09:21:22;;;;;;;3.22;2.42;;;18.00;40.70;;;;;;5018923;28;20021;-62
2021/04/17 09:23:51;;;;;;;5.70;3.10;;;18.10;41.40;;;;;;5003253;28;20047;-59
2021/04/17 09:26:29;;;;;;;4.82;3.17;;;18.30;40.80;;;;;;5021369;28;20018;-60
2021/04/17 09:29:28;;;;;;;5.28;3.35;;;17.80;41.20;;;;;;5017595;28;20037;-61
2021/04/17 09:31:57;;;;;;;10.30;3.58;;;17.10;42.30;;;;;;4974409;28;20042;-59
2021/04/17 09:34:23;;;;;;;5.80;3.38;;;16.60;44.00;;;;;;5023705;28;20026;-60
2021/04/17 09:36:50;;;;;;;7.75;3.00;;;16.50;43.60;;;;;;5005605;28;20044;-61
2021/04/17 09:39:30;;;;;;;5.07;3.22;;;15.80;45.50;;;;;;5019395;28;20022;-60
2021/04/17 09:41:58;;;;;;;6.22;3.35;;;15.50;45.20;;;;;;5006498;28;20551;-59
2021/04/17 09:44:24;;;;;;;5.88;2.88;;;15.10;46.30;;;;;;5015936;28;20350;-60
2021/04/17 09:47:08;;;;;;;7.88;3.40;;;14.80;46.70;;;;;;5011217;28;20022;-61
2021/04/17 09:49:45;;;;;;;5.43;3.20;;;14.50;47.00;;;;;;5022495;28;20029;-57
2021/04/17 09:52:16;;;;;;;8.88;3.10;;;14.40;47.50;;;;;;5013485;28;20048;-61
2021/04/17 09:54:43;;;;;;;7.82;3.13;;;14.30;47.30;;;;;;5020800;28;20026;-59
2021/04/17 09:57:09;;;;;;;6.80;3.15;;;14.40;48.30;;;;;;5017864;28;20041;-60
2021/04/17 09:59:35;;;;;;;6.05;3.20;;;14.90;47.60;;;;;;5013724;28;20030;-59
2021/04/17 10:02:02;;;;;;;7.38;4.03;;;14.80;46.80;;;;;;4990884;28;20037;-53
2021/04/17 10:05:01;;;;;;;8.43;2.78;;;14.90;47.40;;;;;;5011787;28;20117;-61
2021/04/17 10:07:39;;;;;;;9.20;3.08;;;15.00;47.50;;;;;;5015208;28;20022;-60
2021/04/17 10:10:06;;;;;;;5.93;2.90;;;14.90;46.50;;;;;;5019645;28;20400;-58
2021/04/17 10:12:32;;;;;;;12.02;3.90;;;14.80;46.70;;;;;;5000816;28;20076;-60
2021/04/17 10:15:21;;;;;;;5.78;3.35;;;14.30;47.70;;;;;;4998950;28;20030;-61
2021/04/17 10:17:52;;;;;;;5.60;3.10;;;14.60;48.20;;;;;;5006469;28;20606;-60
2021/04/17 10:20:19;;;;;;;7.18;3.00;;;14.70;47.70;;;;;;4999590;28;20066;-61
2021/04/17 10:22:58;;;;;;;6.40;3.40;;;14.60;48.20;;;;;;5013397;28;20022;-58
2021/04/17 10:25:39;;;;;;;6.72;2.50;;;14.70;46.40;;;;;;5001889;28;20499;-59
2021/04/17 10:28:32;;;;;;;10.63;3.05;;;14.40;47.60;;;;;;5001870;28;20038;-59
2021/04/17 10:31:18;;;;;;;5.63;2.53;;;14.40;47.80;;;;;;5008646;28;20046;-57
2021/04/17 10:33:48;;;;;;;6.47;2.63;;;14.50;47.50;;;;;;5010490;28;20084;-60
2021/04/17 10:36:22;;;;;;;5.68;2.78;;;14.30;49.10;;;;;;5005037;28;20403;-59
2021/04/17 10:38:49;;;;;;;4.55;3.03;;;14.80;47.70;;;;;;5019940;28;20120;-59
2021/04/17 10:41:30;;;;;;;7.07;3.78;;;14.90;47.00;;;;;;5013980;28;20029;-60
2021/04/17 10:44:13;;;;;;;9.52;3.55;;;14.60;46.40;;;;;;5012599;28;20026;-59
2021/04/17 10:46:42;;;;;;;5.37;2.60;;;14.30;47.30;;;;;;5015385;28;20026;-59
2021/04/17 10:49:08;;;;;;;7.35;2.65;;;14.00;46.70;;;;;;5018325;28;20052;-59
2021/04/17 10:51:36;;;;;;;5.75;2.70;;;14.00;48.70;;;;;;5012597;28;20488;-58
2021/04/17 10:54:02;;;;;;;6.78;2.92;;;13.90;48.30;;;;;;5013809;28;20030;-61
2021/04/17 10:56:28;;;;;;;9.70;4.43;;;14.00;49.00;;;;;;5016275;28;20080;-61
2021/04/17 10:59:04;;;;;;;7.90;3.03;;;13.90;48.80;;;;;;5013632;28;20045;-60
2021/04/17 11:01:36;;;;;;;9.38;3.25;;;14.00;48.10;;;;;;4984120;28;20038;-59
2021/04/17 11:04:04;;;;;;;6.47;3.00;;;13.80;47.80;;;;;;5007294;28;20046;-61
2021/04/17 11:06:33;;;;;;;7.03;2.70;;;13.70;48.60;;;;;;5008607;28;20384;-58
2021/04/17 11:09:09;;;;;;;8.27;3.45;;;13.50;50.20;;;;;;5004382;28;20117;-60
2021/04/17 11:11:36;;;;;;;8.65;3.35;;;13.60;49.10;;;;;;5005388;28;20034;-61
2021/04/17 11:14:04;;;;;;;6.40;3.22;;;13.70;49.70;;;;;;5015044;28;20376;-61
2021/04/17 11:16:39;;;;;;;7.75;3.13;;;14.00;49.20;;;;;;5021508;28;20036;-60
2021/04/17 11:19:28;;;;;;;5.97;3.10;;;14.50;49.50;;;;;;5007145;28;20062;-62
2021/04/17 11:22:19;;;;;;;5.80;3.42;;;14.60;47.50;;;;;;5009332;28;20075;-58
2021/04/17 11:24:56;;;;;;;6.15;3.03;;;14.60;47.50;;;;;;4999864;28;20029;-60
2021/04/17 11:27:23;;;;;;;6.35;3.00;;;14.50;46.90;;;;;;5008322;28;20025;-60
2021/04/17 11:29:48;;;;;;;5.50;2.47;;;14.20;48.00;;;;;;4995786;28;20026;-58
2021/04/17 11:32:14;;;;;;;4.40;2.83;;;14.20;47.20;;;;;;4995087;28;20463;-58
2021/04/17 11:34:43;;;;;;;12.57;3.25;;;14.10;47.50;;;;;;4999304;28;20026;-59
2021/04/17 11:37:09;;;;;;;7.00;3.08;;;13.80;48.60;;;;;;5011322;28;20033;-59
2021/04/17 11:39:35;;;;;;;6.55;3.40;;;13.80;48.50;;;;;;5021802;28;20040;-57
2021/04/17 11:42:00;;;;;;;6.75;2.90;;;13.70;49.50;;;;;;5014643;28;20029;-59
2021/04/17 11:44:26;;;;;;;8.10;2.85;;;13.60;48.60;;;;;;5021190;28;20156;-59
2021/04/17 11:46:51;;;;;;;6.07;3.35;;;13.60;49.00;;;;;;5015406;28;20466;-57
2021/04/17 11:49:17;;;;;;;8.65;3.17;;;13.40;49.80;;;;;;5017888;28;20044;-59
2021/04/17 11:51:43;;;;;;;8.07;2.88;;;13.20;50.60;;;;;;5016615;28;20030;-59
2021/04/17 11:54:09;;;;;;;8.00;3.42;;;13.30;50.10;;;;;;5016623;28;20028;-56
2021/04/17 11:56:35;;;;;;;6.88;2.83;;;13.20;49.20;;;;;;5016377;28;20495;-57
2021/04/17 11:59:01;;;;;;;7.57;3.20;;;13.00;49.70;;;;;;5016386;28;20034;-57
2021/04/17 12:01:26;;;;;;;7.43;2.65;;;12.70;50.30;;;;;;5013131;28;20390;-57
2021/04/17 12:03:52;;;;;;;9.25;2.92;;;12.60;50.90;;;;;;5022842;28;20021;-56
2021/04/17 12:06:18;;;;;;;9.95;3.13;;;12.50;50.80;;;;;;5004731;28;20038;-60
2021/04/17 12:08:44;;;;;;;9.20;3.05;;;12.40;51.80;;;;;;5001274;28;20026;-57
2021/04/17 12:11:09;;;;;;;7.03;2.85;;;12.60;50.90;;;;;;5003155;28;20503;-57
2021/04/17 12:13:35;;;;;;;7.95;3.08;;;12.50;50.10;;;;;;4997244;28;20034;-59
2021/04/17 12:16:02;;;;;;;8.93;2.85;;;12.30;49.80;;;;;;5001224;28;20022;-60
2021/04/17 12:18:27;;;;;;;6.35;2.90;;;12.20;51.10;;;;;;5002164;28;20069;-59
2021/04/17 12:20:53;;;;;;;8.82;2.55;;;12.10;52.10;;;;;;4998103;28;20054;-59
2021/04/17 12:23:19;;;;;;;8.75;2.75;;;12.20;53.10;;;;;;4996900;28;20030;-60
2021/04/17 12:25:44;;;;;;;7.20;3.60;;;12.40;52.30;;;;;;4994550;28;20034;-60
2021/04/17 12:28:10;;;;;;;8.00;2.70;;;12.40;51.80;;;;;;4999180;28;20028;-56
2021/04/17 12:30:36;;;;;;;6.85;2.40;;;12.50;49.90;;;;;;5000710;28;20029;-53
2021/04/17 12:33:01;;;;;;;7.03;2.35;;;12.60;49.70;;;;;;4998001;28;20061;-57
2021/04/17 12:35:27;;;;;;;7.53;1.85;;;12.40;47.80;;;;;;4998151;28;20034;-60
2021/04/17 12:37:53;;;;;;;5.10;2.05;;;12.20;46.00;;;;;;5009087;28;20403;-59
2021/04/17 12:40:18;;;;;;;7.00;2.13;;;12.00;46.30;;;;;;4982852;28;20599;-60
2021/04/17 12:42:44;;;;;;;6.13;2.35;;;11.80;47.20;;;;;;5008471;28;20036;-55
2021/04/17 12:45:11;;;;;;;4.68;2.30;;;11.70;48.50;;;;;;5008399;28;20096;-59
2021/04/17 12:47:40;;;;;;;5.10;1.85;;;11.70;49.30;;;;;;5006114;28;20025;-59
2021/04/17 12:50:07;;;;;;;3.55;1.90;;;11.40;49.90;;;;;;5013643;28;20022;-60
2021/04/17 12:52:33;;;;;;;4.22;2.47;;;11.10;51.90;;;;;;5010575;28;20080;-62
2021/04/17 12:54:59;;;;;;;11.13;2.55;;;10.80;54.50;;;;;;5017751;28;20585;-61
2021/04/17 12:57:24;;;;;;;4.10;2.08;;;11.00;54.20;;;;;;5010950;28;20040;-60
2021/04/17 12:59:50;;;;;;;6.85;2.47;;;11.10;54.90;;;;;;5016265;28;20101;-58
2021/04/17 13:02:16;;;;;;;5.82;2.10;;;11.20;53.70;;;;;;5009782;28;20022;-57
2021/04/17 13:04:41;;;;;;;8.02;2.60;;;11.40;55.60;;;;;;5009028;28;20023;-58
2021/04/17 13:07:07;;;;;;;3.13;1.83;;;11.70;55.00;;;;;;5006780;28;20356;-59
2021/04/17 13:09:32;;;;;;;5.95;2.60;;;11.90;53.90;;;;;;5014457;28;20534;-59
2021/04/17 13:11:58;;;;;;;4.18;2.70;;;12.00;53.50;;;;;;5016808;28;20027;-60